Time;durP1;ratioP1;P1;durP2;ratioP2;P2;SDS_P1;SDS_P2;PMS_P1;PMS_P2;Temp;Humidity;BMP_temperature;BMP_pressure;BME280_temperature;BME280_humidity;BME280_pressure;Samples;Min_cycle;Max_cycle;Signal;HPM_P1;HPM_P2
2021/05/22 00:00:01;;;;;;;25.83;19.42;;;19.90;57.20;;;;;;5012817;28;20513;-60
2021/05/22 00:02:27;;;;;;;27.27;19.63;;;20.00;57.20;;;;;;5012356;28;20048;-61
2021/05/22 00:04:53;;;;;;;26.00;18.67;;;20.00;57.30;;;;;;5012633;28;20093;-60
2021/05/22 00:07:19;;;;;;;25.08;19.05;;;20.00;57.20;;;;;;5012494;28;20045;-60
2021/05/22 00:09:45;;;;;;;23.42;19.35;;;20.00;57.30;;;;;;5012790;28;20067;-58
2021/05/22 00:12:12;;;;;;;24.73;18.38;;;20.00;57.20;;;;;;5012466;28;20488;-57
2021/05/22 00:14:38;;;;;;;23.42;18.35;;;19.90;57.10;;;;;;5012508;28;20434;-58
2021/05/22 00:17:04;;;;;;;24.85;19.55;;;20.00;57.20;;;;;;5012182;28;20503;-61
2021/05/22 00:19:30;;;;;;;24.15;18.33;;;20.00;57.20;;;;;;5012411;28;20105;-60
2021/05/22 00:21:55;;;;;;;24.40;17.60;;;19.90;57.10;;;;;;5015653;28;20087;-60
2021/05/22 00:24:21;;;;;;;21.85;17.25;;;19.90;57.10;;;;;;5016496;28;20109;-60
2021/05/22 00:26:47;;;;;;;24.25;16.60;;;19.90;57.00;;;;;;5016434;28;20048;-60
2021/05/22 00:29:12;;;;;;;23.58;17.42;;;20.00;57.10;;;;;;5016146;28;20050;-60
2021/05/22 00:31:38;;;;;;;24.92;16.88;;;19.90;57.00;;;;;;5016103;28;20045;-60
2021/05/22 00:34:04;;;;;;;24.70;18.52;;;19.90;57.00;;;;;;5016237;28;20074;-63
2021/05/22 00:36:30;;;;;;;20.73;15.13;;;19.90;57.00;;;;;;5016251;28;20407;-60
2021/05/22 00:38:56;;;;;;;19.98;16.23;;;20.00;57.10;;;;;;5015957;28;20083;-60
2021/05/22 00:41:22;;;;;;;20.77;15.55;;;19.90;57.00;;;;;;5016304;28;20448;-60
2021/05/22 00:43:47;;;;;;;21.15;16.10;;;19.90;57.00;;;;;;5015831;28;20070;-60
2021/05/22 00:46:13;;;;;;;21.08;15.52;;;20.00;57.10;;;;;;5015851;28;20049;-60
2021/05/22 00:48:39;;;;;;;21.90;14.77;;;20.00;57.00;;;;;;5015984;28;20130;-60
2021/05/22 00:51:06;;;;;;;20.27;14.80;;;20.00;57.10;;;;;;5015836;28;20477;-62
2021/05/22 00:53:32;;;;;;;19.33;14.38;;;20.00;57.00;;;;;;5016133;28;20044;-60
2021/05/22 00:55:58;;;;;;;18.17;14.27;;;19.90;57.00;;;;;;5015714;28;20059;-60
2021/05/22 00:58:24;;;;;;;21.10;14.93;;;19.90;57.00;;;;;;5015640;28;20075;-60
2021/05/22 01:00:52;;;;;;;19.02;14.55;;;19.90;57.00;;;;;;5015288;28;20047;-60
2021/05/22 01:03:25;;;;;;;17.63;13.52;;;19.90;57.00;;;;;;5015654;28;20481;-60
2021/05/22 01:05:59;;;;;;;18.88;14.15;;;19.90;56.90;;;;;;5015588;28;20183;-58
2021/05/22 01:08:25;;;;;;;17.38;13.75;;;19.90;57.00;;;;;;5015819;28;20067;-59
2021/05/22 01:11:01;;;;;;;19.05;13.88;;;19.90;57.00;;;;;;5015310;28;20065;-59
2021/05/22 01:13:34;;;;;;;18.52;13.85;;;19.90;57.00;;;;;;5015600;28;20398;-59
2021/05/22 01:16:00;;;;;;;20.25;13.30;;;19.90;57.00;;;;;;5015079;28;20506;-58
2021/05/22 01:18:26;;;;;;;17.17;13.23;;;19.90;57.00;;;;;;5015413;28;20065;-58
2021/05/22 01:20:55;;;;;;;16.77;12.63;;;19.90;57.60;;;;;;5015385;28;20066;-58
2021/05/22 01:23:39;;;;;;;17.55;12.52;;;19.90;57.00;;;;;;5015320;28;20040;-58
2021/05/22 01:26:06;;;;;;;19.08;12.63;;;19.90;57.00;;;;;;5015330;28;20079;-58
2021/05/22 01:28:34;;;;;;;16.98;12.57;;;19.90;57.00;;;;;;5015256;28;20522;-58
2021/05/22 01:31:01;;;;;;;17.15;12.52;;;19.90;57.00;;;;;;5014828;28;20047;-58
2021/05/22 01:33:26;;;;;;;16.60;12.80;;;19.90;57.00;;;;;;5015158;28;20048;-58
2021/05/22 01:35:52;;;;;;;16.52;12.73;;;19.90;56.90;;;;;;5014805;28;20145;-58
2021/05/22 01:38:18;;;;;;;15.85;11.60;;;19.90;56.90;;;;;;5014902;28;20132;-60
2021/05/22 01:40:45;;;;;;;14.50;11.05;;;19.90;57.00;;;;;;5014942;28;20079;-58
2021/05/22 01:43:11;;;;;;;14.68;11.18;;;19.90;56.90;;;;;;5014914;28;20052;-59
2021/05/22 01:45:41;;;;;;;17.95;12.38;;;19.90;56.90;;;;;;5014899;28;20069;-61
2021/05/22 01:48:11;;;;;;;17.73;12.00;;;19.90;56.90;;;;;;5014835;28;20045;-58
2021/05/22 01:50:42;;;;;;;15.48;11.43;;;19.90;56.90;;;;;;5014797;28;20500;-58
2021/05/22 01:53:10;;;;;;;15.98;11.18;;;19.90;56.90;;;;;;5014543;28;20050;-58
2021/05/22 01:55:37;;;;;;;13.65;10.73;;;19.90;56.90;;;;;;5015001;28;20101;-59
2021/05/22 01:58:04;;;;;;;15.18;11.85;;;19.90;56.90;;;;;;5014501;28;20455;-58
2021/05/22 02:00:30;;;;;;;15.65;11.07;;;19.90;56.90;;;;;;5014802;28;20072;-59
2021/05/22 02:03:09;;;;;;;15.40;11.00;;;19.90;56.90;;;;;;5014573;28;20044;-59
2021/05/22 02:05:36;;;;;;;18.33;9.93;;;19.90;57.50;;;;;;5014557;28;20089;-59
2021/05/22 02:08:03;;;;;;;14.05;10.90;;;19.90;56.90;;;;;;5014387;28;20059;-59
2021/05/22 02:10:30;;;;;;;13.88;11.18;;;19.90;56.90;;;;;;5014332;28;20429;-59
2021/05/22 02:12:57;;;;;;;13.90;10.30;;;19.90;56.90;;;;;;5014218;28;20054;-59
2021/05/22 02:15:27;;;;;;;13.27;9.60;;;19.90;57.00;;;;;;5014043;28;20046;-60
2021/05/22 02:17:54;;;;;;;15.63;10.75;;;19.90;56.90;;;;;;5014079;28;20138;-58
2021/05/22 02:20:21;;;;;;;15.90;10.52;;;19.90;56.90;;;;;;5014055;28;20069;-58
2021/05/22 02:22:48;;;;;;;13.88;10.45;;;19.90;56.90;;;;;;5014624;28;20381;-58
2021/05/22 02:25:15;;;;;;;12.38;9.35;;;19.90;56.90;;;;;;5014362;28;20049;-59
2021/05/22 02:27:41;;;;;;;13.95;10.05;;;19.90;56.90;;;;;;5014329;28;20050;-58
2021/05/22 02:30:13;;;;;;;13.02;9.55;;;19.90;57.00;;;;;;5012781;28;20163;-58
2021/05/22 02:32:48;;;;;;;15.00;10.45;;;19.80;56.90;;;;;;5013932;28;20439;-58
2021/05/22 02:35:17;;;;;;;14.25;9.88;;;19.90;56.90;;;;;;5013890;28;20043;-59
2021/05/22 02:37:44;;;;;;;11.23;9.00;;;19.90;56.90;;;;;;5014018;28;20063;-59
2021/05/22 02:40:13;;;;;;;12.65;9.10;;;19.90;56.90;;;;;;5013765;28;20087;-58
2021/05/22 02:42:46;;;;;;;13.85;9.70;;;19.90;56.90;;;;;;5013738;28;20094;-58
2021/05/22 02:45:12;;;;;;;14.05;10.15;;;19.90;56.90;;;;;;5013179;28;20163;-61
2021/05/22 02:47:41;;;;;;;12.15;9.50;;;19.80;56.90;;;;;;5013809;28;20422;-58
2021/05/22 02:50:09;;;;;;;13.05;9.95;;;19.90;56.90;;;;;;5012267;28;20049;-58
2021/05/22 02:52:38;;;;;;;11.93;8.98;;;19.90;56.90;;;;;;5013695;28;20043;-60
2021/05/22 02:55:06;;;;;;;11.95;9.00;;;19.80;56.90;;;;;;5013507;28;20109;-60
2021/05/22 02:57:38;;;;;;;13.77;9.38;;;19.90;56.90;;;;;;5013527;28;20049;-60
2021/05/22 03:00:05;;;;;;;12.95;8.80;;;19.90;56.90;;;;;;5013277;28;20539;-58
2021/05/22 03:02:32;;;;;;;11.15;8.98;;;19.90;56.90;;;;;;5013541;28;20497;-58
2021/05/22 03:04:58;;;;;;;11.35;8.57;;;19.90;56.90;;;;;;5013094;28;20118;-58
2021/05/22 03:07:24;;;;;;;11.43;8.00;;;19.80;56.90;;;;;;5013415;28;20080;-58
2021/05/22 03:09:50;;;;;;;12.90;9.88;;;19.80;56.80;;;;;;5013010;28;20146;-59
2021/05/22 03:12:20;;;;;;;11.90;9.00;;;19.90;56.90;;;;;;5013085;28;20043;-59
2021/05/22 03:14:46;;;;;;;13.30;8.77;;;19.80;56.80;;;;;;5013479;28;20048;-59
2021/05/22 03:17:12;;;;;;;12.05;7.95;;;19.80;56.80;;;;;;5013206;28;20051;-58
2021/05/22 03:19:37;;;;;;;9.55;7.95;;;19.90;56.80;;;;;;5013223;28;20074;-59
2021/05/22 03:22:03;;;;;;;11.77;8.30;;;19.80;56.80;;;;;;5013139;28;20517;-59
2021/05/22 03:24:28;;;;;;;12.52;8.63;;;19.80;56.80;;;;;;5013128;28;20045;-59
2021/05/22 03:26:54;;;;;;;12.32;9.02;;;19.80;56.80;;;;;;5012701;28;20178;-59
2021/05/22 03:29:20;;;;;;;10.75;9.00;;;19.80;56.80;;;;;;5012995;28;20123;-59
2021/05/22 03:31:46;;;;;;;10.35;8.05;;;19.80;56.80;;;;;;5012979;28;20053;-59
2021/05/22 03:34:12;;;;;;;11.68;7.85;;;19.80;56.80;;;;;;5013096;28;20192;-59
2021/05/22 03:36:37;;;;;;;10.40;8.20;;;19.80;56.70;;;;;;5012715;28;20049;-59
2021/05/22 03:39:04;;;;;;;11.63;8.13;;;19.80;56.80;;;;;;5012850;28;20184;-59
2021/05/22 03:41:30;;;;;;;9.98;7.72;;;19.80;56.80;;;;;;5012468;28;20045;-59
2021/05/22 03:43:55;;;;;;;11.30;8.30;;;19.80;56.70;;;;;;5013051;28;20392;-59
2021/05/22 03:46:21;;;;;;;10.35;7.35;;;19.80;56.70;;;;;;5012610;28;20072;-60
2021/05/22 03:48:47;;;;;;;12.05;8.23;;;19.80;56.70;;;;;;5011727;28;20045;-59
2021/05/22 03:51:13;;;;;;;9.77;6.75;;;19.80;56.80;;;;;;5012893;28;20059;-59
2021/05/22 03:53:39;;;;;;;10.32;7.85;;;19.80;56.70;;;;;;5012594;28;20051;-59
2021/05/22 03:56:04;;;;;;;9.18;7.30;;;19.80;56.70;;;;;;5012377;28;20143;-60
2021/05/22 03:58:30;;;;;;;10.18;7.25;;;19.80;56.70;;;;;;5012412;28;20492;-59
2021/05/22 04:00:56;;;;;;;10.73;7.40;;;19.80;56.70;;;;;;5012783;28;20039;-59
2021/05/22 04:03:23;;;;;;;11.05;7.53;;;19.80;56.70;;;;;;5012500;28;20401;-60
2021/05/22 04:05:48;;;;;;;11.65;8.25;;;19.80;56.70;;;;;;5012531;28;20095;-65
2021/05/22 04:08:14;;;;;;;10.88;7.93;;;19.80;56.70;;;;;;5012345;28;20097;-59
2021/05/22 04:10:40;;;;;;;11.27;8.10;;;19.80;56.70;;;;;;5012361;28;20059;-59
2021/05/22 04:13:06;;;;;;;9.60;7.07;;;19.80;56.60;;;;;;5012553;28;20045;-60
2021/05/22 04:15:31;;;;;;;11.07;7.65;;;19.80;56.70;;;;;;5012406;28;20115;-59
2021/05/22 04:17:57;;;;;;;10.73;7.63;;;19.80;56.70;;;;;;5012174;28;20055;-59
2021/05/22 04:20:23;;;;;;;10.32;7.25;;;19.80;56.70;;;;;;5012334;28;20078;-59
2021/05/22 04:22:48;;;;;;;10.52;7.57;;;19.80;56.60;;;;;;5012560;28;20115;-60
2021/05/22 04:25:14;;;;;;;9.80;7.22;;;19.80;56.60;;;;;;5012329;28;20144;-59
2021/05/22 04:27:40;;;;;;;8.77;6.43;;;19.80;56.60;;;;;;5012611;28;20050;-59
2021/05/22 04:30:06;;;;;;;8.68;6.75;;;19.80;56.60;;;;;;5012400;28;20058;-59
2021/05/22 04:32:32;;;;;;;9.38;6.85;;;19.80;56.60;;;;;;5012551;28;20048;-59
2021/05/22 04:34:58;;;;;;;10.13;6.70;;;19.80;56.60;;;;;;5012299;28;20047;-59
2021/05/22 04:37:24;;;;;;;8.32;6.43;;;19.80;56.60;;;;;;5012208;28;20068;-59
2021/05/22 04:39:49;;;;;;;7.72;6.13;;;19.80;56.60;;;;;;5012031;28;20079;-59
2021/05/22 04:42:16;;;;;;;10.20;6.47;;;19.80;56.60;;;;;;5012344;28;20423;-59
2021/05/22 04:44:42;;;;;;;8.57;6.22;;;19.80;56.50;;;;;;5012134;28;20168;-59
2021/05/22 04:47:07;;;;;;;9.02;6.53;;;19.80;56.60;;;;;;5012235;28;20096;-59
2021/05/22 04:49:33;;;;;;;8.77;6.43;;;19.80;56.60;;;;;;5010792;28;20126;-59
2021/05/22 04:51:59;;;;;;;9.30;6.30;;;19.80;56.60;;;;;;5012070;28;20452;-59
2021/05/22 04:54:25;;;;;;;8.40;6.25;;;19.80;56.60;;;;;;5011799;28;20052;-61
2021/05/22 04:56:50;;;;;;;7.88;5.82;;;19.80;56.60;;;;;;5012197;28;20050;-59
2021/05/22 04:59:16;;;;;;;10.38;7.55;;;19.80;56.50;;;;;;5012147;28;20070;-59
2021/05/22 05:01:42;;;;;;;10.38;6.75;;;19.80;56.50;;;;;;5012006;28;20041;-59
2021/05/22 05:04:08;;;;;;;8.52;6.00;;;19.80;56.50;;;;;;5011853;28;20561;-59
2021/05/22 05:06:34;;;;;;;8.52;6.20;;;19.80;56.60;;;;;;5012611;28;20046;-59
2021/05/22 05:09:00;;;;;;;8.15;6.03;;;19.80;56.50;;;;;;5015244;28;20419;-59
2021/05/22 05:11:26;;;;;;;8.68;5.82;;;19.80;56.60;;;;;;5015477;28;20134;-59
2021/05/22 05:13:51;;;;;;;8.52;5.35;;;19.80;56.60;;;;;;5015584;28;20124;-59
2021/05/22 05:16:17;;;;;;;9.52;5.70;;;19.80;56.60;;;;;;5015101;28;20043;-60
2021/05/22 05:18:43;;;;;;;7.95;5.95;;;19.80;56.60;;;;;;5015319;28;20080;-59
2021/05/22 05:21:09;;;;;;;8.07;5.30;;;19.80;56.60;;;;;;5015157;28;20052;-59
2021/05/22 05:23:36;;;;;;;9.68;6.03;;;19.80;56.70;;;;;;5015137;28;20431;-60
2021/05/22 05:26:03;;;;;;;8.25;5.97;;;19.80;56.60;;;;;;5014117;28;20152;-59
2021/05/22 05:28:29;;;;;;;7.32;5.22;;;19.80;56.70;;;;;;5015310;28;20049;-59
2021/05/22 05:30:54;;;;;;;8.35;5.10;;;19.80;56.60;;;;;;5014956;28;20481;-64
2021/05/22 05:33:20;;;;;;;8.85;6.38;;;19.80;56.60;;;;;;5015294;28;20071;-59
2021/05/22 05:35:47;;;;;;;8.95;6.22;;;19.80;56.60;;;;;;5015022;28;20065;-59
2021/05/22 05:38:13;;;;;;;7.40;5.82;;;19.80;56.60;;;;;;5014721;28;20041;-59
2021/05/22 05:40:39;;;;;;;10.23;5.93;;;19.80;56.60;;;;;;5015159;28;20051;-59
2021/05/22 05:43:09;;;;;;;7.10;4.93;;;19.80;56.60;;;;;;5014617;28;20040;-59
2021/05/22 05:45:35;;;;;;;6.95;4.97;;;19.80;56.60;;;;;;5014781;28;20509;-59
2021/05/22 05:48:00;;;;;;;7.05;5.10;;;19.70;56.60;;;;;;5014457;28;20049;-60
2021/05/22 05:50:26;;;;;;;7.05;5.65;;;19.70;56.60;;;;;;5014652;28;20059;-62
2021/05/22 05:52:52;;;;;;;6.68;5.13;;;19.80;56.60;;;;;;5014454;28;20046;-59
2021/05/22 05:55:17;;;;;;;8.05;5.68;;;19.70;56.60;;;;;;5014610;28;20455;-59
2021/05/22 05:57:43;;;;;;;8.45;5.78;;;19.70;56.60;;;;;;5014550;28;20454;-59
2021/05/22 06:00:10;;;;;;;8.82;6.03;;;19.70;56.60;;;;;;5014462;28;20127;-62
2021/05/22 06:02:35;;;;;;;8.30;5.80;;;19.70;56.60;;;;;;5014077;28;20426;-60
2021/05/22 06:05:02;;;;;;;7.38;5.50;;;19.80;56.70;;;;;;5013801;28;20089;-60
2021/05/22 06:07:28;;;;;;;6.70;5.10;;;19.70;56.60;;;;;;5013689;28;20455;-61
2021/05/22 06:09:54;;;;;;;7.55;5.22;;;19.70;56.70;;;;;;5014919;28;20094;-59
2021/05/22 06:12:19;;;;;;;9.10;5.50;;;19.70;56.70;;;;;;5014563;28;20069;-59
2021/05/22 06:14:51;;;;;;;7.00;5.05;;;19.80;56.60;;;;;;5014110;28;20075;-59
2021/05/22 06:17:17;;;;;;;6.97;5.15;;;19.80;56.60;;;;;;5013898;28;20485;-60
2021/05/22 06:19:43;;;;;;;6.80;5.43;;;19.80;56.60;;;;;;5012835;28;20123;-60
2021/05/22 06:22:09;;;;;;;7.15;5.07;;;19.80;56.60;;;;;;5014033;28;20561;-60
2021/05/22 06:24:34;;;;;;;7.95;5.28;;;19.70;56.60;;;;;;5013954;28;20042;-60
2021/05/22 06:27:00;;;;;;;7.28;5.13;;;19.70;56.70;;;;;;5014258;28;20155;-60
2021/05/22 06:29:26;;;;;;;8.30;5.30;;;19.80;56.70;;;;;;5013712;28;20519;-60
2021/05/22 06:31:51;;;;;;;7.35;5.00;;;19.70;56.70;;;;;;5013674;28;20053;-60
2021/05/22 06:34:17;;;;;;;6.80;4.60;;;19.80;56.70;;;;;;5013537;28;20098;-60
2021/05/22 06:36:43;;;;;;;6.82;4.65;;;19.70;56.80;;;;;;5013054;28;20147;-60
2021/05/22 06:39:08;;;;;;;6.30;4.47;;;19.70;56.80;;;;;;5013966;28;20112;-59
2021/05/22 06:41:34;;;;;;;7.60;4.82;;;19.70;56.80;;;;;;5013891;28;20424;-59
2021/05/22 06:44:00;;;;;;;6.65;4.93;;;19.70;56.70;;;;;;5013726;28;20503;-62
2021/05/22 06:48:52;;;;;;;6.35;4.70;;;19.70;56.70;;;;;;5013726;28;20077;-60
2021/05/22 06:51:18;;;;;;;6.55;4.72;;;19.70;56.80;;;;;;5013405;28;20505;-60
2021/05/22 06:53:44;;;;;;;6.28;4.75;;;19.70;57.30;;;;;;5013847;28;20097;-60
2021/05/22 06:56:10;;;;;;;7.35;4.60;;;19.70;56.80;;;;;;5013631;28;20049;-59
2021/05/22 06:58:35;;;;;;;6.65;4.82;;;19.70;56.80;;;;;;5013421;28;20076;-59
2021/05/22 07:01:01;;;;;;;4.88;3.90;;;19.80;56.80;;;;;;5012910;28;20080;-62
2021/05/22 07:03:27;;;;;;;5.80;4.72;;;19.70;56.80;;;;;;5013453;28;20055;-59
2021/05/22 07:05:53;;;;;;;7.45;4.90;;;19.70;56.80;;;;;;5012026;28;20098;-60
2021/05/22 07:08:18;;;;;;;7.28;5.00;;;19.70;57.20;;;;;;5012931;28;20117;-59
2021/05/22 07:10:45;;;;;;;6.53;5.32;;;19.70;57.20;;;;;;5013099;28;20478;-61
2021/05/22 07:13:11;;;;;;;5.22;4.10;;;19.70;57.00;;;;;;5013187;28;20083;-63
2021/05/22 07:15:37;;;;;;;6.45;4.32;;;19.70;56.90;;;;;;5012741;28;20095;-59
2021/05/22 07:18:02;;;;;;;7.10;5.20;;;19.70;57.70;;;;;;5013093;28;20437;-62
2021/05/22 07:20:28;;;;;;;7.05;5.07;;;19.70;57.30;;;;;;5012828;28;20083;-60
2021/05/22 07:22:55;;;;;;;5.95;4.50;;;19.70;57.20;;;;;;5013468;28;20049;-59
2021/05/22 07:25:21;;;;;;;7.20;4.57;;;19.70;57.20;;;;;;5013203;28;20055;-59
2021/05/22 07:27:51;;;;;;;7.75;4.97;;;19.70;57.10;;;;;;5013020;28;20048;-59
2021/05/22 07:30:18;;;;;;;7.65;4.22;;;19.80;57.20;;;;;;5012674;28;20056;-59
2021/05/22 07:32:45;;;;;;;6.75;5.40;;;19.70;57.20;;;;;;5012764;28;20052;-59
2021/05/22 07:35:13;;;;;;;8.23;5.53;;;19.70;57.30;;;;;;5012558;28;20057;-58
2021/05/22 07:37:40;;;;;;;7.13;4.90;;;19.70;57.30;;;;;;5012850;28;20124;-58
2021/05/22 07:40:07;;;;;;;5.88;4.55;;;19.70;57.40;;;;;;5012932;28;20081;-58
2021/05/22 07:42:33;;;;;;;7.43;5.32;;;19.70;57.30;;;;;;5012768;28;20048;-59
2021/05/22 07:44:59;;;;;;;5.60;4.68;;;19.80;58.10;;;;;;5012931;28;20034;-59
2021/05/22 07:47:26;;;;;;;7.30;5.25;;;19.80;57.30;;;;;;5012434;28;20497;-61
2021/05/22 07:49:52;;;;;;;7.13;4.82;;;19.70;57.40;;;;;;5012459;28;20075;-59
2021/05/22 07:52:18;;;;;;;7.50;5.97;;;19.70;57.40;;;;;;5012633;28;20056;-60
2021/05/22 07:54:48;;;;;;;6.82;4.85;;;19.80;57.50;;;;;;5012758;28;20061;-59
2021/05/22 07:57:17;;;;;;;8.10;5.25;;;19.70;57.40;;;;;;5012334;28;20507;-59
2021/05/22 07:59:43;;;;;;;10.85;5.60;;;19.70;58.30;;;;;;5012661;28;20537;-60
2021/05/22 08:02:09;;;;;;;10.80;5.03;;;19.70;59.80;;;;;;5012266;28;20063;-60
2021/05/22 08:04:35;;;;;;;10.65;4.43;;;19.60;60.80;;;;;;5012920;28;20115;-59
2021/05/22 08:07:01;;;;;;;9.70;4.75;;;19.60;62.20;;;;;;5012773;28;20096;-60
2021/05/22 08:09:27;;;;;;;9.68;5.55;;;19.50;63.20;;;;;;5012486;28;20061;-60
2021/05/22 08:11:53;;;;;;;16.63;5.72;;;19.30;64.80;;;;;;5012608;28;20060;-59
2021/05/22 08:14:18;;;;;;;12.23;5.07;;;19.10;66.30;;;;;;5012137;28;20085;-59
2021/05/22 08:16:45;;;;;;;11.48;5.43;;;19.10;67.10;;;;;;5012036;28;20049;-60
2021/05/22 08:19:12;;;;;;;10.30;5.13;;;19.10;66.90;;;;;;5012210;28;20166;-62
2021/05/22 08:21:37;;;;;;;17.67;12.35;;;19.00;67.00;;;;;;5012475;28;20044;-62
2021/05/22 08:24:04;;;;;;;27.83;18.00;;;19.00;67.40;;;;;;5012058;28;20059;-60
2021/05/22 08:26:30;;;;;;;34.80;23.20;;;18.90;67.80;;;;;;5012192;28;20049;-60
2021/05/22 08:28:55;;;;;;;34.67;25.83;;;18.90;67.70;;;;;;5012116;28;20049;-59
2021/05/22 08:31:22;;;;;;;40.50;28.55;;;18.90;68.20;;;;;;5012037;28;20412;-60
2021/05/22 08:33:48;;;;;;;52.42;34.63;;;18.80;68.40;;;;;;5012487;28;20048;-60
2021/05/22 08:36:14;;;;;;;45.22;28.77;;;18.90;68.60;;;;;;5012476;28;20051;-61
2021/05/22 08:38:40;;;;;;;31.27;22.85;;;18.90;68.60;;;;;;5011982;28;20081;-61
2021/05/22 08:41:07;;;;;;;27.20;19.45;;;18.90;68.70;;;;;;5012377;28;20507;-61
2021/05/22 08:43:33;;;;;;;23.17;16.65;;;18.90;68.30;;;;;;5015621;28;20136;-60
2021/05/22 08:45:59;;;;;;;15.45;11.35;;;19.00;68.20;;;;;;5021083;28;20069;-61
2021/05/22 08:48:25;;;;;;;13.38;10.63;;;18.90;68.50;;;;;;5039719;28;20071;-60
2021/05/22 08:50:51;;;;;;;27.25;20.77;;;18.90;69.10;;;;;;5036323;28;20053;-62
2021/05/22 08:53:17;;;;;;;39.47;29.50;;;18.90;69.40;;;;;;5034891;28;20141;-59
2021/05/22 08:55:43;;;;;;;39.40;27.85;;;18.90;70.10;;;;;;5030793;28;20048;-62
2021/05/22 08:58:10;;;;;;;48.47;33.53;;;18.90;69.90;;;;;;5029829;28;20046;-62
2021/05/22 09:00:39;;;;;;;35.40;27.23;;;18.90;70.10;;;;;;5015196;28;20181;-61
2021/05/22 09:03:07;;;;;;;29.00;22.23;;;18.90;70.00;;;;;;5015741;28;20085;-61
2021/05/22 09:05:34;;;;;;;19.52;14.90;;;18.80;69.90;;;;;;5015488;28;20221;-61
2021/05/22 09:08:05;;;;;;;18.35;12.95;;;18.90;69.90;;;;;;5015715;28;20040;-62
2021/05/22 09:10:38;;;;;;;13.40;10.07;;;19.00;69.80;;;;;;5015324;28;20130;-61
2021/05/22 09:13:09;;;;;;;15.65;8.88;;;19.00;70.00;;;;;;5015314;28;20049;-62
2021/05/22 09:15:38;;;;;;;11.63;7.55;;;19.00;70.20;;;;;;5015411;28;20060;-62
2021/05/22 09:18:11;;;;;;;13.05;7.60;;;19.00;69.80;;;;;;5015015;28;20104;-61
2021/05/22 09:20:41;;;;;;;9.32;7.35;;;19.00;69.50;;;;;;5015244;28;20584;-61
2021/05/22 09:23:08;;;;;;;12.90;6.38;;;19.10;69.00;;;;;;5015401;28;20045;-61
2021/05/22 09:25:42;;;;;;;8.18;5.90;;;19.10;68.50;;;;;;5014676;28;20510;-61
2021/05/22 09:28:09;;;;;;;8.88;6.15;;;19.20;68.10;;;;;;5015407;28;20045;-61
2021/05/22 09:30:37;;;;;;;7.50;5.50;;;19.20;67.60;;;;;;5014900;28;20086;-62
2021/05/22 09:33:09;;;;;;;8.20;5.60;;;19.20;67.40;;;;;;5014924;28;20541;-61
2021/05/22 09:35:35;;;;;;;9.30;5.28;;;19.20;67.50;;;;;;5015006;28;20043;-63
2021/05/22 09:38:01;;;;;;;10.40;5.10;;;19.20;67.00;;;;;;5014820;28;20522;-61
2021/05/22 09:40:38;;;;;;;12.23;5.20;;;19.30;66.70;;;;;;5014714;28;20599;-61
2021/05/22 09:43:08;;;;;;;9.65;5.30;;;19.40;66.30;;;;;;5032243;28;20048;-63
2021/05/22 09:45:39;;;;;;;7.57;5.25;;;19.50;65.60;;;;;;5034752;28;20039;-62
2021/05/22 09:48:15;;;;;;;11.80;5.78;;;19.60;64.70;;;;;;5034503;28;20063;-65
2021/05/22 09:50:52;;;;;;;28.17;9.70;;;19.70;64.80;;;;;;5034392;28;20167;-66
2021/05/22 09:53:29;;;;;;;16.30;5.75;;;19.70;64.60;;;;;;5034274;28;20045;-63
2021/05/22 09:56:12;;;;;;;20.38;5.90;;;19.70;64.40;;;;;;5033752;28;20412;-58
2021/05/22 09:58:40;;;;;;;13.98;6.40;;;19.70;64.10;;;;;;5034447;28;20039;-59
2021/05/22 10:01:07;;;;;;;10.63;5.75;;;19.70;63.60;;;;;;5034004;28;20500;-59
2021/05/22 10:03:32;;;;;;;22.90;9.77;;;19.70;64.00;;;;;;5033300;28;20128;-59
2021/05/22 10:05:58;;;;;;;17.30;6.90;;;19.70;64.00;;;;;;5033564;28;20582;-59
2021/05/22 10:08:24;;;;;;;15.90;6.30;;;19.70;64.00;;;;;;5033915;28;20067;-57
2021/05/22 10:10:55;;;;;;;15.48;7.13;;;19.70;63.90;;;;;;5033669;28;20449;-58
2021/05/22 10:13:21;;;;;;;12.45;5.88;;;19.70;63.70;;;;;;5033849;28;20510;-58
2021/05/22 10:15:48;;;;;;;15.40;6.10;;;19.70;63.60;;;;;;5033497;28;20046;-58
2021/05/22 10:18:16;;;;;;;16.40;6.13;;;19.70;63.50;;;;;;5032833;28;20278;-61
2021/05/22 10:20:42;;;;;;;13.88;6.30;;;19.70;63.50;;;;;;5032707;28;20072;-67
2021/05/22 10:23:09;;;;;;;17.98;8.05;;;19.70;63.40;;;;;;5032290;28;20130;-60
2021/05/22 10:25:35;;;;;;;13.05;6.03;;;19.70;63.50;;;;;;5033386;28;20458;-60
2021/05/22 10:28:03;;;;;;;12.77;6.22;;;19.60;63.70;;;;;;5032976;28;20337;-60
2021/05/22 10:30:29;;;;;;;14.63;6.65;;;19.60;64.00;;;;;;5033830;28;20470;-60
2021/05/22 10:33:01;;;;;;;13.35;7.03;;;19.60;63.90;;;;;;5033207;28;20068;-60
2021/05/22 10:35:27;;;;;;;12.25;6.32;;;19.60;63.80;;;;;;5033450;28;20065;-60
2021/05/22 10:37:54;;;;;;;18.92;5.93;;;19.60;63.70;;;;;;5033720;28;20171;-59
2021/05/22 10:40:42;;;;;;;11.85;6.22;;;19.60;63.60;;;;;;5032775;28;20071;-60
2021/05/22 10:43:08;;;;;;;17.58;6.57;;;19.60;63.40;;;;;;5028138;28;20100;-58
2021/05/22 10:45:37;;;;;;;16.90;6.90;;;19.70;63.50;;;;;;5033221;28;20456;-59
2021/05/22 10:48:25;;;;;;;19.63;10.30;;;19.70;63.30;;;;;;5029798;28;20044;-60
2021/05/22 10:50:51;;;;;;;23.05;13.82;;;19.70;62.60;;;;;;5024182;28;20152;-58
2021/05/22 10:53:32;;;;;;;33.97;17.42;;;19.70;62.80;;;;;;5022865;28;20425;-60
2021/05/22 10:56:10;;;;;;;25.58;14.52;;;19.70;62.50;;;;;;5024654;28;20047;-61
2021/05/22 10:58:37;;;;;;;37.05;19.42;;;19.70;62.60;;;;;;5032998;28;20152;-59
2021/05/22 11:01:47;;;;;;;30.83;20.13;;;19.70;62.50;;;;;;5032890;28;20040;-59
2021/05/22 11:04:12;;;;;;;28.92;17.75;;;19.70;62.40;;;;;;5032044;28;20091;-59
2021/05/22 11:06:55;;;;;;;27.40;17.55;;;19.70;62.60;;;;;;5032857;28;20070;-59
2021/05/22 11:09:27;;;;;;;31.80;20.00;;;19.70;62.30;;;;;;5033161;28;20130;-61
2021/05/22 11:12:14;;;;;;;27.50;18.45;;;19.70;62.40;;;;;;5031865;28;20076;-63
2021/05/22 11:14:44;;;;;;;29.70;20.80;;;19.70;62.50;;;;;;5033252;28;20043;-60
2021/05/22 11:17:33;;;;;;;34.13;21.55;;;19.80;62.30;;;;;;5032125;28;20058;-61
2021/05/22 11:20:03;;;;;;;37.28;21.58;;;19.70;62.60;;;;;;5024409;28;20104;-60
2021/05/22 11:22:30;;;;;;;30.77;21.37;;;19.70;63.00;;;;;;5031110;28;20080;-60
2021/05/22 11:25:10;;;;;;;32.08;21.65;;;19.70;63.40;;;;;;5032462;28;20092;-60
2021/05/22 11:27:49;;;;;;;29.25;19.45;;;19.70;64.30;;;;;;5031714;28;20421;-63
2021/05/22 11:30:16;;;;;;;38.55;18.60;;;19.70;64.10;;;;;;5013074;28;20398;-59
2021/05/22 11:32:42;;;;;;;33.33;17.73;;;19.70;64.10;;;;;;5020220;28;20040;-61
2021/05/22 11:35:29;;;;;;;31.65;16.45;;;19.70;64.30;;;;;;5032368;28;20440;-55
2021/05/22 11:37:58;;;;;;;22.83;14.75;;;19.70;64.50;;;;;;5032090;28;20055;-55
2021/05/22 11:40:36;;;;;;;22.67;14.57;;;19.70;64.80;;;;;;5032043;28;20167;-61
2021/05/22 11:43:31;;;;;;;29.80;16.35;;;19.70;64.70;;;;;;5032165;28;20447;-59
2021/05/22 11:46:06;;;;;;;26.60;15.82;;;19.70;65.00;;;;;;5018461;28;20056;-61
2021/05/22 11:48:33;;;;;;;25.10;13.23;;;19.70;64.80;;;;;;5032367;28;20127;-62
2021/05/22 11:51:01;;;;;;;26.05;13.75;;;19.70;64.30;;;;;;5031767;28;20212;-62
2021/05/22 11:53:29;;;;;;;21.20;13.05;;;19.80;64.20;;;;;;5032321;28;20046;-61
2021/05/22 11:56:14;;;;;;;23.27;11.50;;;19.80;65.00;;;;;;5032199;28;20051;-62
2021/05/22 11:58:48;;;;;;;18.63;13.55;;;19.80;64.60;;;;;;5031670;28;20051;-61
2021/05/22 12:01:19;;;;;;;26.13;17.52;;;19.70;64.70;;;;;;5032409;28;20051;-59
2021/05/22 12:03:50;;;;;;;33.15;21.85;;;19.80;64.90;;;;;;5032102;28;20049;-59
2021/05/22 12:06:28;;;;;;;26.05;17.40;;;19.70;65.00;;;;;;5031627;28;20074;-61
2021/05/22 12:09:01;;;;;;;28.85;20.75;;;19.70;65.20;;;;;;5031852;28;20084;-62
2021/05/22 12:11:32;;;;;;;23.25;18.67;;;19.70;65.20;;;;;;5032317;28;20075;-62
2021/05/22 12:14:03;;;;;;;27.25;21.42;;;19.70;65.10;;;;;;5031666;28;20037;-62
2021/05/22 12:16:29;;;;;;;25.17;18.50;;;19.70;65.00;;;;;;5031268;28;20090;-64
2021/05/22 12:18:55;;;;;;;22.00;17.42;;;19.70;64.80;;;;;;5035261;28;20088;-63
2021/05/22 12:21:31;;;;;;;22.23;15.70;;;19.60;64.60;;;;;;5035688;28;20047;-62
2021/05/22 12:24:09;;;;;;;20.67;16.13;;;19.70;64.80;;;;;;5036123;28;20054;-62
2021/05/22 12:26:37;;;;;;;19.33;14.25;;;19.70;64.80;;;;;;5035970;28;20072;-62
2021/05/22 12:29:04;;;;;;;19.00;13.65;;;19.70;64.60;;;;;;5035083;28;20479;-62
2021/05/22 12:31:30;;;;;;;19.85;12.27;;;19.70;64.00;;;;;;5036068;28;20041;-62
2021/05/22 12:34:01;;;;;;;13.80;11.02;;;19.60;63.80;;;;;;5035879;28;20036;-62
2021/05/22 12:36:28;;;;;;;17.98;12.30;;;19.60;63.70;;;;;;5035418;28;20045;-62
2021/05/22 12:38:54;;;;;;;16.17;10.48;;;19.60;63.60;;;;;;5035644;28;20068;-62
2021/05/22 12:41:34;;;;;;;14.65;9.80;;;19.60;63.70;;;;;;5035925;28;20065;-62